sensor_id;sensor_type;location;lat;lon;timestamp;P1;durP1;ratioP1;P2;durP2;ratioP2
7080;SDS011;3582;51.506;11.948;2023-07-20T00:00:05;8.07;;;6.53;;
7080;SDS011;3582;51.506;11.948;2023-07-20T00:02:38;7.30;;;6.60;;
7080;SDS011;3582;51.506;11.948;2023-07-20T00:05:05;9.30;;;6.70;;
7080;SDS011;3582;51.506;11.948;2023-07-20T00:07:31;7.20;;;6.60;;
7080;SDS011;3582;51.506;11.948;2023-07-20T00:09:59;8.43;;;6.87;;
7080;SDS011;3582;51.506;11.948;2023-07-20T00:12:26;7.03;;;6.53;;
7080;SDS011;3582;51.506;11.948;2023-07-20T00:14:54;9.87;;;7.20;;
7080;SDS011;3582;51.506;11.948;2023-07-20T00:17:20;6.70;;;5.90;;
7080;SDS011;3582;51.506;11.948;2023-07-20T00:19:46;7.60;;;7.00;;
7080;SDS011;3582;51.506;11.948;2023-07-20T00:22:12;6.33;;;5.93;;
7080;SDS011;3582;51.506;11.948;2023-07-20T00:24:38;6.43;;;5.90;;
7080;SDS011;3582;51.506;11.948;2023-07-20T00:27:04;7.77;;;7.07;;
7080;SDS011;3582;51.506;11.948;2023-07-20T00:29:30;7.40;;;6.80;;
7080;SDS011;3582;51.506;11.948;2023-07-20T00:31:58;7.40;;;6.77;;
7080;SDS011;3582;51.506;11.948;2023-07-20T00:34:24;6.97;;;6.47;;
7080;SDS011;3582;51.506;11.948;2023-07-20T00:36:50;8.67;;;7.37;;
7080;SDS011;3582;51.506;11.948;2023-07-20T00:39:16;6.07;;;5.60;;
7080;SDS011;3582;51.506;11.948;2023-07-20T00:41:42;7.13;;;5.60;;
7080;SDS011;3582;51.506;11.948;2023-07-20T00:44:13;9.77;;;5.90;;
7080;SDS011;3582;51.506;11.948;2023-07-20T00:46:39;9.20;;;5.47;;
7080;SDS011;3582;51.506;11.948;2023-07-20T00:49:06;6.23;;;5.07;;
7080;SDS011;3582;51.506;11.948;2023-07-20T00:51:32;6.30;;;5.70;;
7080;SDS011;3582;51.506;11.948;2023-07-20T00:53:59;6.60;;;6.07;;
7080;SDS011;3582;51.506;11.948;2023-07-20T00:56:25;5.63;;;5.13;;
7080;SDS011;3582;51.506;11.948;2023-07-20T00:58:51;6.60;;;5.40;;
7080;SDS011;3582;51.506;11.948;2023-07-20T01:01:17;5.87;;;5.20;;
7080;SDS011;3582;51.506;11.948;2023-07-20T01:03:43;6.13;;;5.40;;
7080;SDS011;3582;51.506;11.948;2023-07-20T01:06:13;7.10;;;6.43;;
7080;SDS011;3582;51.506;11.948;2023-07-20T01:08:46;11.60;;;6.87;;
7080;SDS011;3582;51.506;11.948;2023-07-20T01:11:16;7.20;;;5.70;;
7080;SDS011;3582;51.506;11.948;2023-07-20T01:13:43;6.10;;;5.50;;
7080;SDS011;3582;51.506;11.948;2023-07-20T01:16:10;6.60;;;6.00;;
7080;SDS011;3582;51.506;11.948;2023-07-20T01:18:40;8.07;;;5.70;;
7080;SDS011;3582;51.506;11.948;2023-07-20T01:21:08;5.77;;;5.00;;
7080;SDS011;3582;51.506;11.948;2023-07-20T01:23:51;5.97;;;5.47;;
7080;SDS011;3582;51.506;11.948;2023-07-20T01:26:38;9.13;;;5.67;;
7080;SDS011;3582;51.506;11.948;2023-07-20T01:29:17;6.90;;;6.30;;
7080;SDS011;3582;51.506;11.948;2023-07-20T01:31:49;8.30;;;6.20;;
7080;SDS011;3582;51.506;11.948;2023-07-20T01:34:20;7.00;;;6.33;;
7080;SDS011;3582;51.506;11.948;2023-07-20T01:36:52;6.90;;;6.20;;
7080;SDS011;3582;51.506;11.948;2023-07-20T01:39:20;7.47;;;6.73;;
7080;SDS011;3582;51.506;11.948;2023-07-20T01:41:47;6.40;;;5.83;;
7080;SDS011;3582;51.506;11.948;2023-07-20T01:44:15;7.30;;;6.37;;
7080;SDS011;3582;51.506;11.948;2023-07-20T01:46:43;7.90;;;5.87;;
7080;SDS011;3582;51.506;11.948;2023-07-20T01:49:09;5.50;;;5.00;;
7080;SDS011;3582;51.506;11.948;2023-07-20T01:51:38;6.50;;;6.10;;
7080;SDS011;3582;51.506;11.948;2023-07-20T01:54:04;11.23;;;6.57;;
7080;SDS011;3582;51.506;11.948;2023-07-20T01:56:39;6.83;;;5.90;;
7080;SDS011;3582;51.506;11.948;2023-07-20T01:59:08;9.70;;;6.10;;
7080;SDS011;3582;51.506;11.948;2023-07-20T02:01:36;7.27;;;5.33;;
7080;SDS011;3582;51.506;11.948;2023-07-20T02:04:09;5.30;;;4.87;;
7080;SDS011;3582;51.506;11.948;2023-07-20T02:06:35;6.10;;;5.47;;
7080;SDS011;3582;51.506;11.948;2023-07-20T02:09:01;6.83;;;6.10;;
7080;SDS011;3582;51.506;11.948;2023-07-20T02:11:27;9.20;;;6.60;;
7080;SDS011;3582;51.506;11.948;2023-07-20T02:13:53;6.80;;;6.20;;
7080;SDS011;3582;51.506;11.948;2023-07-20T02:16:22;7.87;;;6.50;;
7080;SDS011;3582;51.506;11.948;2023-07-20T02:18:48;13.40;;;5.90;;
7080;SDS011;3582;51.506;11.948;2023-07-20T02:21:14;6.43;;;5.90;;
7080;SDS011;3582;51.506;11.948;2023-07-20T02:23:40;8.57;;;6.07;;
7080;SDS011;3582;51.506;11.948;2023-07-20T02:26:06;6.70;;;6.03;;
7080;SDS011;3582;51.506;11.948;2023-07-20T02:28:32;6.03;;;5.43;;
7080;SDS011;3582;51.506;11.948;2023-07-20T02:30:58;12.90;;;6.97;;
7080;SDS011;3582;51.506;11.948;2023-07-20T02:33:26;8.30;;;6.80;;
7080;SDS011;3582;51.506;11.948;2023-07-20T02:35:57;9.37;;;6.83;;
7080;SDS011;3582;51.506;11.948;2023-07-20T02:38:23;12.43;;;7.13;;
7080;SDS011;3582;51.506;11.948;2023-07-20T02:40:49;10.40;;;7.20;;
7080;SDS011;3582;51.506;11.948;2023-07-20T02:43:16;6.77;;;6.30;;
7080;SDS011;3582;51.506;11.948;2023-07-20T02:45:45;8.87;;;7.80;;
7080;SDS011;3582;51.506;11.948;2023-07-20T02:48:11;8.33;;;7.50;;
7080;SDS011;3582;51.506;11.948;2023-07-20T02:50:37;22.20;;;8.17;;
7080;SDS011;3582;51.506;11.948;2023-07-20T02:53:03;9.43;;;7.60;;
7080;SDS011;3582;51.506;11.948;2023-07-20T02:55:29;8.63;;;7.53;;
7080;SDS011;3582;51.506;11.948;2023-07-20T02:57:55;6.97;;;6.20;;
7080;SDS011;3582;51.506;11.948;2023-07-20T03:00:21;8.20;;;7.43;;
7080;SDS011;3582;51.506;11.948;2023-07-20T03:02:48;9.07;;;8.23;;
7080;SDS011;3582;51.506;11.948;2023-07-20T03:05:17;8.80;;;8.10;;
7080;SDS011;3582;51.506;11.948;2023-07-20T03:07:43;8.77;;;7.90;;
7080;SDS011;3582;51.506;11.948;2023-07-20T03:10:10;9.37;;;8.37;;
7080;SDS011;3582;51.506;11.948;2023-07-20T03:12:36;13.50;;;11.77;;
7080;SDS011;3582;51.506;11.948;2023-07-20T03:15:05;15.43;;;8.73;;
7080;SDS011;3582;51.506;11.948;2023-07-20T03:17:33;11.93;;;9.67;;
7080;SDS011;3582;51.506;11.948;2023-07-20T03:19:59;13.63;;;9.40;;
7080;SDS011;3582;51.506;11.948;2023-07-20T03:22:26;9.47;;;8.43;;
7080;SDS011;3582;51.506;11.948;2023-07-20T03:24:52;12.17;;;8.20;;
7080;SDS011;3582;51.506;11.948;2023-07-20T03:27:18;10.70;;;9.27;;
7080;SDS011;3582;51.506;11.948;2023-07-20T03:29:47;9.80;;;8.80;;
7080;SDS011;3582;51.506;11.948;2023-07-20T03:32:15;16.63;;;10.30;;
7080;SDS011;3582;51.506;11.948;2023-07-20T03:34:41;21.43;;;10.43;;
7080;SDS011;3582;51.506;11.948;2023-07-20T03:37:10;10.60;;;8.50;;
7080;SDS011;3582;51.506;11.948;2023-07-20T03:39:36;10.70;;;8.73;;
7080;SDS011;3582;51.506;11.948;2023-07-20T03:42:02;9.97;;;8.87;;
7080;SDS011;3582;51.506;11.948;2023-07-20T03:44:28;12.10;;;10.30;;
7080;SDS011;3582;51.506;11.948;2023-07-20T03:46:55;10.50;;;9.40;;
7080;SDS011;3582;51.506;11.948;2023-07-20T03:49:25;11.57;;;10.47;;
7080;SDS011;3582;51.506;11.948;2023-07-20T03:51:52;10.57;;;9.60;;
7080;SDS011;3582;51.506;11.948;2023-07-20T03:54:22;11.33;;;10.17;;
7080;SDS011;3582;51.506;11.948;2023-07-20T03:56:48;14.60;;;10.80;;
7080;SDS011;3582;51.506;11.948;2023-07-20T03:59:15;12.60;;;11.33;;
7080;SDS011;3582;51.506;11.948;2023-07-20T04:01:41;20.93;;;10.33;;
7080;SDS011;3582;51.506;11.948;2023-07-20T04:04:07;11.80;;;10.13;;
7080;SDS011;3582;51.506;11.948;2023-07-20T04:06:33;13.23;;;9.57;;
7080;SDS011;3582;51.506;11.948;2023-07-20T04:08:59;11.17;;;10.33;;
7080;SDS011;3582;51.506;11.948;2023-07-20T04:11:25;10.33;;;9.33;;
7080;SDS011;3582;51.506;11.948;2023-07-20T04:13:51;12.57;;;9.90;;
7080;SDS011;3582;51.506;11.948;2023-07-20T04:16:17;18.00;;;12.80;;
7080;SDS011;3582;51.506;11.948;2023-07-20T04:18:45;12.70;;;9.70;;
7080;SDS011;3582;51.506;11.948;2023-07-20T04:21:11;12.73;;;8.80;;
7080;SDS011;3582;51.506;11.948;2023-07-20T04:23:39;11.77;;;8.63;;
7080;SDS011;3582;51.506;11.948;2023-07-20T04:26:05;17.17;;;10.40;;
7080;SDS011;3582;51.506;11.948;2023-07-20T04:28:31;35.77;;;11.00;;
7080;SDS011;3582;51.506;11.948;2023-07-20T04:31:09;13.17;;;11.63;;
7080;SDS011;3582;51.506;11.948;2023-07-20T04:33:36;12.67;;;9.20;;
7080;SDS011;3582;51.506;11.948;2023-07-20T04:36:02;10.40;;;8.53;;
7080;SDS011;3582;51.506;11.948;2023-07-20T04:38:29;10.27;;;8.47;;
7080;SDS011;3582;51.506;11.948;2023-07-20T04:40:54;10.70;;;9.00;;
7080;SDS011;3582;51.506;11.948;2023-07-20T04:43:20;9.97;;;8.60;;
7080;SDS011;3582;51.506;11.948;2023-07-20T04:45:46;22.30;;;11.70;;
7080;SDS011;3582;51.506;11.948;2023-07-20T04:48:16;18.17;;;9.87;;
7080;SDS011;3582;51.506;11.948;2023-07-20T04:50:43;15.80;;;9.63;;
7080;SDS011;3582;51.506;11.948;2023-07-20T04:53:12;14.37;;;9.60;;
7080;SDS011;3582;51.506;11.948;2023-07-20T04:55:46;10.60;;;8.43;;
7080;SDS011;3582;51.506;11.948;2023-07-20T04:58:19;11.63;;;8.60;;
7080;SDS011;3582;51.506;11.948;2023-07-20T05:00:45;15.07;;;10.83;;
7080;SDS011;3582;51.506;11.948;2023-07-20T05:03:19;10.00;;;9.03;;
7080;SDS011;3582;51.506;11.948;2023-07-20T05:05:46;10.63;;;8.07;;
7080;SDS011;3582;51.506;11.948;2023-07-20T05:08:12;8.97;;;8.10;;
7080;SDS011;3582;51.506;11.948;2023-07-20T05:10:38;14.20;;;8.90;;
7080;SDS011;3582;51.506;11.948;2023-07-20T05:13:04;11.33;;;7.73;;
7080;SDS011;3582;51.506;11.948;2023-07-20T05:15:32;18.10;;;7.87;;
7080;SDS011;3582;51.506;11.948;2023-07-20T05:17:59;8.90;;;8.00;;
7080;SDS011;3582;51.506;11.948;2023-07-20T05:20:25;14.10;;;8.87;;
7080;SDS011;3582;51.506;11.948;2023-07-20T05:22:51;8.10;;;7.50;;
7080;SDS011;3582;51.506;11.948;2023-07-20T05:25:17;12.13;;;7.53;;
7080;SDS011;3582;51.506;11.948;2023-07-20T05:27:44;10.73;;;8.87;;
7080;SDS011;3582;51.506;11.948;2023-07-20T05:30:11;11.43;;;8.70;;
7080;SDS011;3582;51.506;11.948;2023-07-20T05:32:37;10.17;;;8.73;;
7080;SDS011;3582;51.506;11.948;2023-07-20T05:35:03;9.73;;;7.13;;
7080;SDS011;3582;51.506;11.948;2023-07-20T05:37:29;11.70;;;7.93;;
7080;SDS011;3582;51.506;11.948;2023-07-20T05:39:55;16.90;;;8.03;;
7080;SDS011;3582;51.506;11.948;2023-07-20T05:42:21;12.53;;;7.40;;
7080;SDS011;3582;51.506;11.948;2023-07-20T05:44:47;16.60;;;6.97;;
7080;SDS011;3582;51.506;11.948;2023-07-20T05:47:14;11.57;;;7.80;;
7080;SDS011;3582;51.506;11.948;2023-07-20T05:49:40;7.77;;;6.97;;
7080;SDS011;3582;51.506;11.948;2023-07-20T05:52:06;10.63;;;7.60;;
7080;SDS011;3582;51.506;11.948;2023-07-20T05:54:32;10.67;;;7.87;;
7080;SDS011;3582;51.506;11.948;2023-07-20T05:56:58;6.93;;;5.60;;
7080;SDS011;3582;51.506;11.948;2023-07-20T05:59:24;7.10;;;6.40;;
7080;SDS011;3582;51.506;11.948;2023-07-20T06:01:50;15.23;;;6.70;;
7080;SDS011;3582;51.506;11.948;2023-07-20T06:04:16;7.13;;;6.17;;
7080;SDS011;3582;51.506;11.948;2023-07-20T06:06:42;13.83;;;5.03;;
7080;SDS011;3582;51.506;11.948;2023-07-20T06:09:08;8.97;;;4.70;;
7080;SDS011;3582;51.506;11.948;2023-07-20T06:11:37;7.17;;;5.63;;
7080;SDS011;3582;51.506;11.948;2023-07-20T06:14:03;12.90;;;5.07;;
7080;SDS011;3582;51.506;11.948;2023-07-20T06:16:29;5.13;;;4.77;;
7080;SDS011;3582;51.506;11.948;2023-07-20T06:18:55;11.60;;;6.23;;
7080;SDS011;3582;51.506;11.948;2023-07-20T06:21:22;12.07;;;9.27;;
7080;SDS011;3582;51.506;11.948;2023-07-20T06:23:48;11.30;;;6.90;;
7080;SDS011;3582;51.506;11.948;2023-07-20T06:26:14;9.33;;;6.87;;
7080;SDS011;3582;51.506;11.948;2023-07-20T06:28:40;11.37;;;10.37;;
7080;SDS011;3582;51.506;11.948;2023-07-20T06:31:06;8.50;;;7.53;;
7080;SDS011;3582;51.506;11.948;2023-07-20T06:33:32;9.53;;;6.50;;
7080;SDS011;3582;51.506;11.948;2023-07-20T06:35:59;19.27;;;6.20;;
7080;SDS011;3582;51.506;11.948;2023-07-20T06:38:25;5.23;;;4.83;;
7080;SDS011;3582;51.506;11.948;2023-07-20T06:40:51;9.60;;;6.13;;
7080;SDS011;3582;51.506;11.948;2023-07-20T06:43:17;9.53;;;5.97;;
7080;SDS011;3582;51.506;11.948;2023-07-20T06:45:44;10.47;;;6.73;;
7080;SDS011;3582;51.506;11.948;2023-07-20T06:48:10;6.77;;;6.17;;
7080;SDS011;3582;51.506;11.948;2023-07-20T06:50:36;8.97;;;6.43;;
7080;SDS011;3582;51.506;11.948;2023-07-20T06:53:01;7.20;;;6.50;;
7080;SDS011;3582;51.506;11.948;2023-07-20T06:55:30;8.87;;;6.03;;
7080;SDS011;3582;51.506;11.948;2023-07-20T06:57:56;8.33;;;7.00;;
7080;SDS011;3582;51.506;11.948;2023-07-20T07:00:22;9.07;;;7.50;;
7080;SDS011;3582;51.506;11.948;2023-07-20T07:02:48;8.83;;;7.53;;
7080;SDS011;3582;51.506;11.948;2023-07-20T07:05:14;15.60;;;9.07;;
7080;SDS011;3582;51.506;11.948;2023-07-20T07:07:40;10.43;;;8.40;;
7080;SDS011;3582;51.506;11.948;2023-07-20T07:10:07;8.13;;;7.43;;
7080;SDS011;3582;51.506;11.948;2023-07-20T07:12:33;11.33;;;10.07;;
7080;SDS011;3582;51.506;11.948;2023-07-20T07:15:00;11.57;;;8.03;;
7080;SDS011;3582;51.506;11.948;2023-07-20T07:17:26;8.90;;;8.00;;
7080;SDS011;3582;51.506;11.948;2023-07-20T07:19:52;10.43;;;7.50;;
7080;SDS011;3582;51.506;11.948;2023-07-20T07:22:20;15.40;;;8.40;;
7080;SDS011;3582;51.506;11.948;2023-07-20T07:24:46;8.93;;;7.97;;
7080;SDS011;3582;51.506;11.948;2023-07-20T07:27:12;8.93;;;8.33;;
7080;SDS011;3582;51.506;11.948;2023-07-20T07:29:41;9.10;;;8.40;;
7080;SDS011;3582;51.506;11.948;2023-07-20T07:32:09;12.83;;;11.23;;
7080;SDS011;3582;51.506;11.948;2023-07-20T07:34:36;11.30;;;10.27;;
7080;SDS011;3582;51.506;11.948;2023-07-20T07:37:02;10.97;;;10.17;;
7080;SDS011;3582;51.506;11.948;2023-07-20T07:39:28;10.53;;;9.63;;
7080;SDS011;3582;51.506;11.948;2023-07-20T07:41:55;11.13;;;10.17;;
7080;SDS011;3582;51.506;11.948;2023-07-20T07:44:21;12.27;;;11.07;;
7080;SDS011;3582;51.506;11.948;2023-07-20T07:46:47;12.70;;;11.87;;
7080;SDS011;3582;51.506;11.948;2023-07-20T07:49:13;13.37;;;12.40;;
7080;SDS011;3582;51.506;11.948;2023-07-20T07:51:39;13.20;;;12.10;;
7080;SDS011;3582;51.506;11.948;2023-07-20T07:54:05;14.73;;;12.97;;
7080;SDS011;3582;51.506;11.948;2023-07-20T07:56:31;13.60;;;12.33;;
7080;SDS011;3582;51.506;11.948;2023-07-20T07:58:57;12.47;;;11.67;;
7080;SDS011;3582;51.506;11.948;2023-07-20T08:01:23;14.50;;;12.20;;
7080;SDS011;3582;51.506;11.948;2023-07-20T08:03:50;13.93;;;12.47;;
7080;SDS011;3582;51.506;11.948;2023-07-20T08:06:16;17.13;;;13.33;;
7080;SDS011;3582;51.506;11.948;2023-07-20T08:08:43;12.33;;;11.23;;
7080;SDS011;3582;51.506;11.948;2023-07-20T08:11:09;10.87;;;10.13;;
7080;SDS011;3582;51.506;11.948;2023-07-20T08:13:35;11.00;;;9.77;;
7080;SDS011;3582;51.506;11.948;2023-07-20T08:16:01;11.80;;;11.00;;
7080;SDS011;3582;51.506;11.948;2023-07-20T08:18:27;16.90;;;13.23;;
7080;SDS011;3582;51.506;11.948;2023-07-20T08:20:54;11.37;;;10.47;;
7080;SDS011;3582;51.506;11.948;2023-07-20T08:23:20;9.90;;;9.00;;
7080;SDS011;3582;51.506;11.948;2023-07-20T08:25:46;9.60;;;8.80;;
7080;SDS011;3582;51.506;11.948;2023-07-20T08:28:15;10.50;;;9.90;;
7080;SDS011;3582;51.506;11.948;2023-07-20T08:30:41;10.67;;;9.53;;
7080;SDS011;3582;51.506;11.948;2023-07-20T08:33:08;10.97;;;10.03;;
7080;SDS011;3582;51.506;11.948;2023-07-20T08:35:34;11.73;;;10.57;;
7080;SDS011;3582;51.506;11.948;2023-07-20T08:38:00;10.47;;;9.57;;
7080;SDS011;3582;51.506;11.948;2023-07-20T08:40:27;9.63;;;8.77;;
7080;SDS011;3582;51.506;11.948;2023-07-20T08:42:54;10.17;;;9.20;;
7080;SDS011;3582;51.506;11.948;2023-07-20T08:45:20;9.40;;;8.90;;
7080;SDS011;3582;51.506;11.948;2023-07-20T08:47:47;9.60;;;8.90;;
7080;SDS011;3582;51.506;11.948;2023-07-20T08:50:14;8.10;;;7.50;;
7080;SDS011;3582;51.506;11.948;2023-07-20T08:52:40;8.30;;;7.40;;
7080;SDS011;3582;51.506;11.948;2023-07-20T08:55:06;9.63;;;6.83;;
7080;SDS011;3582;51.506;11.948;2023-07-20T08:57:33;9.67;;;6.77;;
7080;SDS011;3582;51.506;11.948;2023-07-20T09:00:03;9.20;;;7.97;;
7080;SDS011;3582;51.506;11.948;2023-07-20T09:02:36;8.70;;;8.00;;
7080;SDS011;3582;51.506;11.948;2023-07-20T09:05:04;10.93;;;9.93;;
7080;SDS011;3582;51.506;11.948;2023-07-20T09:07:30;13.40;;;12.03;;
7080;SDS011;3582;51.506;11.948;2023-07-20T09:09:57;19.93;;;11.20;;
7080;SDS011;3582;51.506;11.948;2023-07-20T09:12:23;12.93;;;11.77;;
7080;SDS011;3582;51.506;11.948;2023-07-20T09:14:50;20.87;;;13.37;;
7080;SDS011;3582;51.506;11.948;2023-07-20T09:17:15;16.57;;;14.97;;
7080;SDS011;3582;51.506;11.948;2023-07-20T09:19:48;27.47;;;17.97;;
7080;SDS011;3582;51.506;11.948;2023-07-20T09:22:14;17.80;;;16.17;;
7080;SDS011;3582;51.506;11.948;2023-07-20T09:24:40;18.30;;;16.53;;
7080;SDS011;3582;51.506;11.948;2023-07-20T09:27:06;25.00;;;15.60;;
7080;SDS011;3582;51.506;11.948;2023-07-20T09:29:34;23.93;;;20.03;;
7080;SDS011;3582;51.506;11.948;2023-07-20T09:32:03;22.70;;;19.47;;
7080;SDS011;3582;51.506;11.948;2023-07-20T09:34:32;18.70;;;16.90;;
7080;SDS011;3582;51.506;11.948;2023-07-20T09:36:58;14.00;;;12.90;;
7080;SDS011;3582;51.506;11.948;2023-07-20T09:39:25;16.97;;;15.27;;
7080;SDS011;3582;51.506;11.948;2023-07-20T09:41:51;17.10;;;15.43;;
7080;SDS011;3582;51.506;11.948;2023-07-20T09:44:17;16.70;;;15.30;;
7080;SDS011;3582;51.506;11.948;2023-07-20T09:46:47;15.50;;;13.90;;
7080;SDS011;3582;51.506;11.948;2023-07-20T09:49:13;14.83;;;13.53;;
7080;SDS011;3582;51.506;11.948;2023-07-20T09:51:39;15.03;;;13.30;;
7080;SDS011;3582;51.506;11.948;2023-07-20T09:54:07;13.70;;;12.73;;
7080;SDS011;3582;51.506;11.948;2023-07-20T09:56:33;14.20;;;13.10;;
7080;SDS011;3582;51.506;11.948;2023-07-20T09:59:00;13.87;;;12.63;;
7080;SDS011;3582;51.506;11.948;2023-07-20T10:01:26;14.10;;;12.93;;
7080;SDS011;3582;51.506;11.948;2023-07-20T10:03:54;10.73;;;9.93;;
7080;SDS011;3582;51.506;11.948;2023-07-20T10:06:26;12.60;;;11.33;;
7080;SDS011;3582;51.506;11.948;2023-07-20T10:08:55;9.90;;;9.17;;
7080;SDS011;3582;51.506;11.948;2023-07-20T10:11:21;11.53;;;8.77;;
7080;SDS011;3582;51.506;11.948;2023-07-20T10:13:51;9.00;;;8.20;;
7080;SDS011;3582;51.506;11.948;2023-07-20T10:16:22;9.80;;;9.00;;
7080;SDS011;3582;51.506;11.948;2023-07-20T10:18:51;9.27;;;8.57;;
7080;SDS011;3582;51.506;11.948;2023-07-20T10:21:20;10.10;;;9.40;;
7080;SDS011;3582;51.506;11.948;2023-07-20T10:23:48;9.47;;;8.80;;
7080;SDS011;3582;51.506;11.948;2023-07-20T10:26:14;9.83;;;9.20;;
7080;SDS011;3582;51.506;11.948;2023-07-20T10:28:40;9.97;;;9.30;;
7080;SDS011;3582;51.506;11.948;2023-07-20T10:31:07;11.60;;;9.70;;
7080;SDS011;3582;51.506;11.948;2023-07-20T10:33:34;13.10;;;10.43;;
7080;SDS011;3582;51.506;11.948;2023-07-20T10:36:03;9.60;;;9.00;;
7080;SDS011;3582;51.506;11.948;2023-07-20T10:38:42;10.93;;;10.10;;
7080;SDS011;3582;51.506;11.948;2023-07-20T10:41:28;12.87;;;9.20;;
7080;SDS011;3582;51.506;11.948;2023-07-20T10:43:58;7.27;;;6.57;;
7080;SDS011;3582;51.506;11.948;2023-07-20T10:49:00;7.53;;;6.57;;
7080;SDS011;3582;51.506;11.948;2023-07-20T10:51:29;4.80;;;4.00;;
7080;SDS011;3582;51.506;11.948;2023-07-20T10:53:58;4.20;;;3.90;;
7080;SDS011;3582;51.506;11.948;2023-07-20T10:56:27;4.73;;;4.43;;
7080;SDS011;3582;51.506;11.948;2023-07-20T10:59:00;4.10;;;3.90;;
7080;SDS011;3582;51.506;11.948;2023-07-20T11:01:29;4.70;;;4.40;;
7080;SDS011;3582;51.506;11.948;2023-07-20T11:03:57;2.90;;;2.70;;
7080;SDS011;3582;51.506;11.948;2023-07-20T11:09:03;2.00;;;1.90;;
7080;SDS011;3582;51.506;11.948;2023-07-20T11:11:30;4.80;;;2.57;;
7080;SDS011;3582;51.506;11.948;2023-07-20T11:14:06;3.07;;;1.50;;
7080;SDS011;3582;51.506;11.948;2023-07-20T11:16:45;2.47;;;1.60;;
7080;SDS011;3582;51.506;11.948;2023-07-20T11:19:21;1.97;;;1.70;;
7080;SDS011;3582;51.506;11.948;2023-07-20T11:21:51;2.73;;;1.97;;
7080;SDS011;3582;51.506;11.948;2023-07-20T11:24:17;4.40;;;1.30;;
7080;SDS011;3582;51.506;11.948;2023-07-20T11:26:53;1.70;;;1.60;;
7080;SDS011;3582;51.506;11.948;2023-07-20T11:29:20;2.70;;;1.40;;
7080;SDS011;3582;51.506;11.948;2023-07-20T11:31:47;1.90;;;1.80;;
7080;SDS011;3582;51.506;11.948;2023-07-20T11:34:14;2.53;;;1.47;;
7080;SDS011;3582;51.506;11.948;2023-07-20T11:36:44;4.40;;;1.63;;
7080;SDS011;3582;51.506;11.948;2023-07-20T11:39:10;1.57;;;1.47;;
7080;SDS011;3582;51.506;11.948;2023-07-20T11:41:37;3.33;;;1.60;;
7080;SDS011;3582;51.506;11.948;2023-07-20T11:44:03;4.83;;;1.87;;
7080;SDS011;3582;51.506;11.948;2023-07-20T11:46:31;2.10;;;2.00;;
7080;SDS011;3582;51.506;11.948;2023-07-20T11:48:58;2.40;;;1.70;;
7080;SDS011;3582;51.506;11.948;2023-07-20T11:51:30;2.10;;;1.90;;
7080;SDS011;3582;51.506;11.948;2023-07-20T11:54:00;2.70;;;1.90;;
7080;SDS011;3582;51.506;11.948;2023-07-20T11:56:27;2.87;;;2.23;;
7080;SDS011;3582;51.506;11.948;2023-07-20T11:58:56;6.70;;;3.10;;
7080;SDS011;3582;51.506;11.948;2023-07-20T12:01:25;3.93;;;3.70;;
7080;SDS011;3582;51.506;11.948;2023-07-20T12:03:54;4.60;;;4.37;;
7080;SDS011;3582;51.506;11.948;2023-07-20T12:06:24;4.23;;;3.93;;
7080;SDS011;3582;51.506;11.948;2023-07-20T12:08:52;2.93;;;2.83;;
7080;SDS011;3582;51.506;11.948;2023-07-20T12:11:34;3.93;;;3.73;;
7080;SDS011;3582;51.506;11.948;2023-07-20T12:14:00;4.67;;;4.27;;
7080;SDS011;3582;51.506;11.948;2023-07-20T12:16:26;3.97;;;3.77;;
7080;SDS011;3582;51.506;11.948;2023-07-20T12:19:26;3.30;;;3.10;;
7080;SDS011;3582;51.506;11.948;2023-07-20T12:21:45;8.10;;;5.10;;
7080;SDS011;3582;51.506;11.948;2023-07-20T12:24:11;4.63;;;4.20;;
7080;SDS011;3582;51.506;11.948;2023-07-20T12:26:37;4.67;;;4.30;;
7080;SDS011;3582;51.506;11.948;2023-07-20T12:29:04;4.13;;;3.93;;
7080;SDS011;3582;51.506;11.948;2023-07-20T12:31:30;4.67;;;4.27;;
7080;SDS011;3582;51.506;11.948;2023-07-20T12:33:56;6.03;;;5.60;;
7080;SDS011;3582;51.506;11.948;2023-07-20T12:36:23;5.77;;;5.40;;
7080;SDS011;3582;51.506;11.948;2023-07-20T12:38:49;5.57;;;4.80;;
7080;SDS011;3582;51.506;11.948;2023-07-20T12:41:15;5.40;;;5.10;;
7080;SDS011;3582;51.506;11.948;2023-07-20T12:43:41;6.00;;;5.60;;
7080;SDS011;3582;51.506;11.948;2023-07-20T12:46:07;5.53;;;5.10;;
7080;SDS011;3582;51.506;11.948;2023-07-20T12:48:34;6.03;;;5.50;;
7080;SDS011;3582;51.506;11.948;2023-07-20T12:51:02;5.97;;;5.63;;
7080;SDS011;3582;51.506;11.948;2023-07-20T12:53:28;5.43;;;5.13;;
7080;SDS011;3582;51.506;11.948;2023-07-20T12:55:54;5.67;;;5.27;;
7080;SDS011;3582;51.506;11.948;2023-07-20T12:58:20;6.50;;;6.00;;
7080;SDS011;3582;51.506;11.948;2023-07-20T13:00:46;6.50;;;6.10;;
7080;SDS011;3582;51.506;11.948;2023-07-20T13:03:12;10.57;;;6.83;;
7080;SDS011;3582;51.506;11.948;2023-07-20T13:05:38;6.67;;;6.20;;
7080;SDS011;3582;51.506;11.948;2023-07-20T13:08:04;6.60;;;6.20;;
7080;SDS011;3582;51.506;11.948;2023-07-20T13:10:30;5.60;;;5.20;;
7080;SDS011;3582;51.506;11.948;2023-07-20T13:12:57;4.73;;;4.50;;
7080;SDS011;3582;51.506;11.948;2023-07-20T13:15:24;5.70;;;5.30;;
7080;SDS011;3582;51.506;11.948;2023-07-20T13:17:56;5.50;;;5.20;;
7080;SDS011;3582;51.506;11.948;2023-07-20T13:20:22;5.50;;;5.10;;
7080;SDS011;3582;51.506;11.948;2023-07-20T13:22:47;4.60;;;4.33;;
7080;SDS011;3582;51.506;11.948;2023-07-20T13:25:14;5.60;;;5.10;;
7080;SDS011;3582;51.506;11.948;2023-07-20T13:27:40;5.10;;;4.60;;
7080;SDS011;3582;51.506;11.948;2023-07-20T13:30:06;5.07;;;4.67;;
7080;SDS011;3582;51.506;11.948;2023-07-20T13:32:34;3.73;;;3.53;;
7080;SDS011;3582;51.506;11.948;2023-07-20T13:35:00;4.50;;;3.23;;
7080;SDS011;3582;51.506;11.948;2023-07-20T13:37:26;3.13;;;3.00;;
7080;SDS011;3582;51.506;11.948;2023-07-20T13:39:53;2.90;;;2.80;;
7080;SDS011;3582;51.506;11.948;2023-07-20T13:42:19;3.37;;;3.17;;
7080;SDS011;3582;51.506;11.948;2023-07-20T13:44:46;3.50;;;3.20;;
7080;SDS011;3582;51.506;11.948;2023-07-20T13:47:12;3.30;;;3.10;;
7080;SDS011;3582;51.506;11.948;2023-07-20T13:49:38;2.97;;;2.87;;
7080;SDS011;3582;51.506;11.948;2023-07-20T13:52:04;3.07;;;2.87;;
7080;SDS011;3582;51.506;11.948;2023-07-20T13:54:30;3.17;;;2.37;;
7080;SDS011;3582;51.506;11.948;2023-07-20T13:56:56;2.90;;;2.20;;
7080;SDS011;3582;51.506;11.948;2023-07-20T13:59:22;1.90;;;1.77;;
7080;SDS011;3582;51.506;11.948;2023-07-20T14:01:49;2.40;;;2.20;;
7080;SDS011;3582;51.506;11.948;2023-07-20T14:04:15;3.00;;;2.50;;
7080;SDS011;3582;51.506;11.948;2023-07-20T14:06:40;2.30;;;2.20;;
7080;SDS011;3582;51.506;11.948;2023-07-20T14:09:07;3.03;;;2.37;;
7080;SDS011;3582;51.506;11.948;2023-07-20T14:11:33;2.90;;;2.20;;
7080;SDS011;3582;51.506;11.948;2023-07-20T14:13:59;2.03;;;1.60;;
7080;SDS011;3582;51.506;11.948;2023-07-20T14:16:25;1.70;;;1.60;;
7080;SDS011;3582;51.506;11.948;2023-07-20T14:18:51;2.37;;;1.57;;
7080;SDS011;3582;51.506;11.948;2023-07-20T14:21:17;1.57;;;1.57;;
7080;SDS011;3582;51.506;11.948;2023-07-20T14:23:47;1.67;;;1.57;;
7080;SDS011;3582;51.506;11.948;2023-07-20T14:26:13;1.47;;;1.37;;
7080;SDS011;3582;51.506;11.948;2023-07-20T14:28:39;1.67;;;1.57;;
7080;SDS011;3582;51.506;11.948;2023-07-20T14:31:06;1.93;;;1.70;;
7080;SDS011;3582;51.506;11.948;2023-07-20T14:33:32;2.10;;;1.20;;
7080;SDS011;3582;51.506;11.948;2023-07-20T14:35:58;1.33;;;1.33;;
7080;SDS011;3582;51.506;11.948;2023-07-20T14:38:26;1.50;;;1.40;;
7080;SDS011;3582;51.506;11.948;2023-07-20T14:40:52;1.27;;;1.20;;
7080;SDS011;3582;51.506;11.948;2023-07-20T14:43:18;1.33;;;1.23;;
7080;SDS011;3582;51.506;11.948;2023-07-20T14:45:44;1.37;;;1.30;;
7080;SDS011;3582;51.506;11.948;2023-07-20T14:48:10;1.20;;;1.10;;
7080;SDS011;3582;51.506;11.948;2023-07-20T14:50:36;1.03;;;1.00;;
7080;SDS011;3582;51.506;11.948;2023-07-20T14:53:02;1.10;;;1.10;;
7080;SDS011;3582;51.506;11.948;2023-07-20T14:55:28;1.20;;;1.20;;
7080;SDS011;3582;51.506;11.948;2023-07-20T14:57:54;1.43;;;1.33;;